APL New York — 9V9916 — position and weather

sailwx.info

Track history (hours):
 
Tides and Currents Weather Stations Pressure Air Temp Water Temp Dewpoint Dewpoint Depression Visibility Wind Speed Wind Dir Waves Ship Positions

APL New York

Last reported at 2018-Feb-21 00:37 UTC. Time now 2018-Feb-21 07:14 UTC.
Position N 41°39' E 141°38'.

Length 328 m; draft 13.5 m.

Type: Ship (hazmat cat A). MMSI: 566879000.

Date/timePositionNaut miles runAvg speedWind from/ knotsBaromVisibWave heightAir tempDewpointWater temp
2018-Feb-21 00:37N 41°39' E 141°38'322.8
2018-Feb-21 00:30N 41°39' E 141°35'1122.4
2018-Feb-21 00:00N 41°37' E 141°20'1021.2
2018-Feb-20 23:30N 41°38' E 141°06'1122.8
2018-Feb-20 23:00N 41°36' E 140°51'1122.6
2018-Feb-20 22:30N 41°29' E 140°39'1122.9
2018-Feb-20 22:00N 41°22' E 140°26'1222.9
2018-Feb-20 21:29N 41°16' E 140°13'60121.3
2018-Feb-19 17:15N 34°48' E 130°30'1221.8
2018-Feb-19 16:41N 34°39' E 130°21'421.8
2018-Feb-19 16:30N 34°36' E 130°18'1121.5
2018-Feb-19 16:00N 34°29' E 130°08'1121.6
2018-Feb-19 15:30N 34°22' E 129°58'  
2018-Feb-13 09:17N 31°04' E 122°54'2411.5
2018-Feb-13 07:11N 31°06' E 122°26'312.8
2018-Feb-13 06:57N 31°06' E 122°23'714.5
2018-Feb-13 06:30N 31°08' E 122°16'714.9
2018-Feb-13 06:00N 31°12' E 122°09'814.7
2018-Feb-13 05:28N 31°15' E 121°60'714.8
2018-Feb-13 04:59N 31°16' E 121°52'16 0.4
2018-Feb-11 14:37N 31°22' E 121°35'0 0.0
2018-Feb-11 14:25N 31°22' E 121°35'0 0.3
2018-Feb-11 13:49N 31°23' E 121°35'1 1.6
2018-Feb-11 13:29N 31°23' E 121°35'4 7.7
2018-Feb-11 12:58N 31°21' E 121°39'610.2
2018-Feb-11 12:22N 31°18' E 121°46'710.3
2018-Feb-11 11:43N 31°16' E 121°53'2 9.6
2018-Feb-11 11:30N 31°16' E 121°55'5 9.7
2018-Feb-11 11:00N 31°15' E 122°01'5 9.7
2018-Feb-11 10:30N 31°13' E 122°06'510.1
2018-Feb-11 10:00N 31°10' E 122°11'5 9.1
2018-Feb-11 09:30N 31°08' E 122°15'4 8.5
2018-Feb-11 09:00N 31°06' E 122°20'510.4
2018-Feb-11 08:30N 31°06' E 122°26'4 8.6
2018-Feb-11 07:59N 31°07' E 122°31'  
Track history (hours):
 
Tides and Currents Weather Stations Pressure Air Temp Water Temp Dewpoint Dewpoint Depression Visibility Wind Speed Wind Dir Waves Ship Positions

APL New York

Last reported at 2018-Feb-21 00:37 UTC. Time now 2018-Feb-21 07:14 UTC.
Position N 41°39' E 141°38'.

Length 328 m; draft 13.5 m.

Type: Ship (hazmat cat A). MMSI: 566879000.

Date/timePositionNaut miles runAvg speedWind from/ knotsBaromVisibWave heightAir tempDewpointWater temp
2018-Feb-21 00:37N 41°39' E 141°38'322.8
2018-Feb-21 00:30N 41°39' E 141°35'1122.4
2018-Feb-21 00:00N 41°37' E 141°20'1021.2
2018-Feb-20 23:30N 41°38' E 141°06'1122.8
2018-Feb-20 23:00N 41°36' E 140°51'1122.6
2018-Feb-20 22:30N 41°29' E 140°39'1122.9
2018-Feb-20 22:00N 41°22' E 140°26'1222.9
2018-Feb-20 21:29N 41°16' E 140°13'60121.3
2018-Feb-19 17:15N 34°48' E 130°30'1221.8
2018-Feb-19 16:41N 34°39' E 130°21'421.8
2018-Feb-19 16:30N 34°36' E 130°18'1121.5
2018-Feb-19 16:00N 34°29' E 130°08'1121.6
2018-Feb-19 15:30N 34°22' E 129°58'  
2018-Feb-13 09:17N 31°04' E 122°54'2411.5
2018-Feb-13 07:11N 31°06' E 122°26'312.8
2018-Feb-13 06:57N 31°06' E 122°23'714.5
2018-Feb-13 06:30N 31°08' E 122°16'714.9
2018-Feb-13 06:00N 31°12' E 122°09'814.7
2018-Feb-13 05:28N 31°15' E 121°60'714.8
2018-Feb-13 04:59N 31°16' E 121°52'16 0.4
2018-Feb-11 14:37N 31°22' E 121°35'0 0.0
2018-Feb-11 14:25N 31°22' E 121°35'0 0.3
2018-Feb-11 13:49N 31°23' E 121°35'1 1.6
2018-Feb-11 13:29N 31°23' E 121°35'4 7.7
2018-Feb-11 12:58N 31°21' E 121°39'610.2
2018-Feb-11 12:22N 31°18' E 121°46'710.3
2018-Feb-11 11:43N 31°16' E 121°53'2 9.6
2018-Feb-11 11:30N 31°16' E 121°55'5 9.7
2018-Feb-11 11:00N 31°15' E 122°01'5 9.7
2018-Feb-11 10:30N 31°13' E 122°06'510.1
2018-Feb-11 10:00N 31°10' E 122°11'5 9.1
2018-Feb-11 09:30N 31°08' E 122°15'4 8.5
2018-Feb-11 09:00N 31°06' E 122°20'510.4
2018-Feb-11 08:30N 31°06' E 122°26'4 8.6
2018-Feb-11 07:59N 31°07' E 122°31'  

Dump ship's entire track history